sensor_id;sensor_type;location;lat;lon;timestamp;pressure;altitude;pressure_sealevel;temperature;humidity
68889;BME280;55930;47.412;8.790;2023-07-31T00:01:01;94781.19;;;13.59;100.00
68889;BME280;55930;47.412;8.790;2023-07-31T00:04:21;94780.78;;;13.66;100.00
68889;BME280;55930;47.412;8.790;2023-07-31T00:07:41;94778.44;;;13.48;100.00
68889;BME280;55930;47.412;8.790;2023-07-31T00:11:02;94780.16;;;13.51;100.00
68889;BME280;55930;47.412;8.790;2023-07-31T00:14:22;94770.88;;;13.40;100.00
68889;BME280;55930;47.412;8.790;2023-07-31T00:17:42;94768.34;;;13.57;100.00
68889;BME280;55930;47.412;8.790;2023-07-31T00:21:02;94765.38;;;13.50;100.00
68889;BME280;55930;47.412;8.790;2023-07-31T00:24:25;94767.00;;;13.41;100.00
68889;BME280;55930;47.412;8.790;2023-07-31T00:27:46;94772.00;;;13.34;100.00
68889;BME280;55930;47.412;8.790;2023-07-31T00:31:06;94775.78;;;13.48;100.00
68889;BME280;55930;47.412;8.790;2023-07-31T00:34:26;94785.44;;;13.45;100.00
68889;BME280;55930;47.412;8.790;2023-07-31T00:37:47;94776.69;;;13.39;100.00
68889;BME280;55930;47.412;8.790;2023-07-31T00:41:09;94776.84;;;13.30;100.00
68889;BME280;55930;47.412;8.790;2023-07-31T00:44:29;94768.63;;;13.33;100.00
68889;BME280;55930;47.412;8.790;2023-07-31T00:47:50;94771.81;;;13.37;100.00
68889;BME280;55930;47.412;8.790;2023-07-31T00:51:10;94775.69;;;13.36;100.00
68889;BME280;55930;47.412;8.790;2023-07-31T00:54:30;94773.22;;;13.33;100.00
68889;BME280;55930;47.412;8.790;2023-07-31T00:57:51;94767.38;;;13.29;100.00
68889;BME280;55930;47.412;8.790;2023-07-31T01:01:12;94772.97;;;13.11;100.00
68889;BME280;55930;47.412;8.790;2023-07-31T01:04:33;94764.91;;;13.25;100.00
68889;BME280;55930;47.412;8.790;2023-07-31T01:07:56;94756.69;;;13.03;100.00
68889;BME280;55930;47.412;8.790;2023-07-31T01:11:23;94762.13;;;12.94;100.00
68889;BME280;55930;47.412;8.790;2023-07-31T01:15:06;94766.28;;;12.95;100.00
68889;BME280;55930;47.412;8.790;2023-07-31T01:18:31;94764.81;;;12.94;100.00
68889;BME280;55930;47.412;8.790;2023-07-31T01:22:12;94752.78;;;12.78;100.00
68889;BME280;55930;47.412;8.790;2023-07-31T01:29:30;94747.31;;;12.87;100.00
68889;BME280;55930;47.412;8.790;2023-07-31T01:32:52;94744.28;;;12.74;100.00
68889;BME280;55930;47.412;8.790;2023-07-31T01:36:12;94739.81;;;12.65;100.00
68889;BME280;55930;47.412;8.790;2023-07-31T01:39:33;94739.28;;;12.61;100.00
68889;BME280;55930;47.412;8.790;2023-07-31T01:42:54;94743.00;;;12.70;100.00
68889;BME280;55930;47.412;8.790;2023-07-31T01:46:14;94732.66;;;12.77;100.00
68889;BME280;55930;47.412;8.790;2023-07-31T01:49:34;94730.97;;;12.54;100.00
68889;BME280;55930;47.412;8.790;2023-07-31T01:52:55;94733.91;;;12.56;100.00
68889;BME280;55930;47.412;8.790;2023-07-31T01:56:15;94733.63;;;12.54;100.00
68889;BME280;55930;47.412;8.790;2023-07-31T01:59:35;94730.91;;;12.48;100.00
68889;BME280;55930;47.412;8.790;2023-07-31T02:02:55;94718.00;;;12.41;100.00
68889;BME280;55930;47.412;8.790;2023-07-31T02:06:18;94718.06;;;12.47;100.00
68889;BME280;55930;47.412;8.790;2023-07-31T02:09:38;94710.50;;;12.60;100.00
68889;BME280;55930;47.412;8.790;2023-07-31T02:12:59;94714.22;;;12.48;100.00
68889;BME280;55930;47.412;8.790;2023-07-31T02:16:19;94706.63;;;12.41;100.00
68889;BME280;55930;47.412;8.790;2023-07-31T02:19:39;94708.22;;;12.33;100.00
68889;BME280;55930;47.412;8.790;2023-07-31T02:22:59;94701.44;;;12.32;100.00
68889;BME280;55930;47.412;8.790;2023-07-31T02:26:20;94687.47;;;12.16;100.00
68889;BME280;55930;47.412;8.790;2023-07-31T02:29:40;94695.00;;;12.18;100.00
68889;BME280;55930;47.412;8.790;2023-07-31T02:33:00;94689.72;;;12.23;100.00
68889;BME280;55930;47.412;8.790;2023-07-31T02:36:21;94690.81;;;12.11;100.00
68889;BME280;55930;47.412;8.790;2023-07-31T02:39:41;94691.06;;;12.13;100.00
68889;BME280;55930;47.412;8.790;2023-07-31T02:43:01;94691.84;;;11.99;100.00
68889;BME280;55930;47.412;8.790;2023-07-31T02:46:22;94692.84;;;12.22;100.00
68889;BME280;55930;47.412;8.790;2023-07-31T02:49:44;94686.13;;;12.06;100.00
68889;BME280;55930;47.412;8.790;2023-07-31T02:53:04;94681.63;;;12.12;100.00
68889;BME280;55930;47.412;8.790;2023-07-31T02:56:25;94691.16;;;12.19;100.00
68889;BME280;55930;47.412;8.790;2023-07-31T02:59:45;94693.34;;;12.20;100.00
68889;BME280;55930;47.412;8.790;2023-07-31T03:03:05;94697.09;;;12.14;100.00
68889;BME280;55930;47.412;8.790;2023-07-31T03:06:25;94692.84;;;12.22;100.00
68889;BME280;55930;47.412;8.790;2023-07-31T03:09:47;94691.94;;;12.25;100.00
68889;BME280;55930;47.412;8.790;2023-07-31T03:13:07;94678.88;;;12.07;100.00
68889;BME280;55930;47.412;8.790;2023-07-31T03:16:32;94685.66;;;12.08;100.00
68889;BME280;55930;47.412;8.790;2023-07-31T03:19:52;94690.88;;;12.17;100.00
68889;BME280;55930;47.412;8.790;2023-07-31T03:23:12;94699.72;;;12.29;100.00
68889;BME280;55930;47.412;8.790;2023-07-31T03:26:33;94698.84;;;12.37;100.00
68889;BME280;55930;47.412;8.790;2023-07-31T03:29:53;94701.25;;;12.35;100.00
68889;BME280;55930;47.412;8.790;2023-07-31T03:33:13;94700.38;;;12.44;100.00
68889;BME280;55930;47.412;8.790;2023-07-31T03:36:34;94694.66;;;12.51;100.00
68889;BME280;55930;47.412;8.790;2023-07-31T03:39:54;94698.47;;;12.70;100.00
68889;BME280;55930;47.412;8.790;2023-07-31T03:43:17;94700.63;;;12.66;100.00
68889;BME280;55930;47.412;8.790;2023-07-31T03:46:37;94687.69;;;12.79;100.00
68889;BME280;55930;47.412;8.790;2023-07-31T03:49:57;94694.22;;;12.78;100.00
68889;BME280;55930;47.412;8.790;2023-07-31T03:53:18;94694.75;;;12.82;100.00
68889;BME280;55930;47.412;8.790;2023-07-31T03:56:38;94693.56;;;12.83;100.00
68889;BME280;55930;47.412;8.790;2023-07-31T03:59:58;94697.75;;;12.70;100.00
68889;BME280;55930;47.412;8.790;2023-07-31T04:03:21;94713.84;;;12.81;100.00
68889;BME280;55930;47.412;8.790;2023-07-31T04:06:41;94707.00;;;12.74;100.00
68889;BME280;55930;47.412;8.790;2023-07-31T04:10:03;94710.59;;;12.71;100.00
68889;BME280;55930;47.412;8.790;2023-07-31T04:13:23;94718.09;;;12.93;100.00
68889;BME280;55930;47.412;8.790;2023-07-31T04:16:43;94709.94;;;13.02;100.00
68889;BME280;55930;47.412;8.790;2023-07-31T04:20:04;94711.53;;;12.94;100.00
68889;BME280;55930;47.412;8.790;2023-07-31T04:23:25;94715.09;;;13.11;100.00
68889;BME280;55930;47.412;8.790;2023-07-31T04:26:45;94712.91;;;13.10;100.00
68889;BME280;55930;47.412;8.790;2023-07-31T04:30:06;94716.75;;;13.29;100.00
68889;BME280;55930;47.412;8.790;2023-07-31T04:33:26;94727.44;;;13.34;100.00
68889;BME280;55930;47.412;8.790;2023-07-31T04:36:46;94720.59;;;13.54;100.00
68889;BME280;55930;47.412;8.790;2023-07-31T04:40:07;94717.78;;;13.68;100.00
68889;BME280;55930;47.412;8.790;2023-07-31T04:43:28;94715.69;;;13.84;100.00
68889;BME280;55930;47.412;8.790;2023-07-31T04:46:48;94716.50;;;13.95;100.00
68889;BME280;55930;47.412;8.790;2023-07-31T04:50:09;94720.13;;;13.92;100.00
68889;BME280;55930;47.412;8.790;2023-07-31T04:53:29;94718.22;;;13.98;100.00
68889;BME280;55930;47.412;8.790;2023-07-31T04:56:49;94710.03;;;14.07;100.00
68889;BME280;55930;47.412;8.790;2023-07-31T05:00:09;94712.13;;;13.92;100.00
68889;BME280;55930;47.412;8.790;2023-07-31T05:03:30;94709.53;;;14.03;100.00
68889;BME280;55930;47.412;8.790;2023-07-31T05:06:50;94716.34;;;14.10;100.00
68889;BME280;55930;47.412;8.790;2023-07-31T05:10:10;94720.06;;;14.24;100.00
68889;BME280;55930;47.412;8.790;2023-07-31T05:13:31;94701.13;;;14.22;100.00
68889;BME280;55930;47.412;8.790;2023-07-31T05:16:51;94703.47;;;14.51;100.00
68889;BME280;55930;47.412;8.790;2023-07-31T05:20:12;94701.03;;;14.53;100.00
68889;BME280;55930;47.412;8.790;2023-07-31T05:23:32;94709.09;;;14.64;100.00
68889;BME280;55930;47.412;8.790;2023-07-31T05:26:53;94710.66;;;14.99;100.00
68889;BME280;55930;47.412;8.790;2023-07-31T05:30:13;94701.69;;;15.29;100.00
68889;BME280;55930;47.412;8.790;2023-07-31T05:33:33;94716.28;;;15.45;100.00
68889;BME280;55930;47.412;8.790;2023-07-31T05:36:54;94713.41;;;15.54;100.00
68889;BME280;55930;47.412;8.790;2023-07-31T05:40:14;94716.31;;;15.56;100.00
68889;BME280;55930;47.412;8.790;2023-07-31T05:43:34;94714.13;;;15.60;100.00
68889;BME280;55930;47.412;8.790;2023-07-31T05:46:54;94714.81;;;15.44;100.00
68889;BME280;55930;47.412;8.790;2023-07-31T05:50:16;94714.59;;;15.48;100.00
68889;BME280;55930;47.412;8.790;2023-07-31T05:53:36;94713.63;;;15.62;100.00
68889;BME280;55930;47.412;8.790;2023-07-31T05:57:00;94713.88;;;15.69;100.00
68889;BME280;55930;47.412;8.790;2023-07-31T06:00:20;94719.19;;;15.81;100.00
68889;BME280;55930;47.412;8.790;2023-07-31T06:03:41;94719.94;;;15.76;100.00
68889;BME280;55930;47.412;8.790;2023-07-31T06:07:01;94718.22;;;15.73;100.00
68889;BME280;55930;47.412;8.790;2023-07-31T06:10:21;94726.75;;;15.88;100.00
68889;BME280;55930;47.412;8.790;2023-07-31T06:13:42;94728.22;;;15.66;100.00
68889;BME280;55930;47.412;8.790;2023-07-31T06:17:06;94716.03;;;15.65;100.00
68889;BME280;55930;47.412;8.790;2023-07-31T06:20:27;94704.59;;;15.82;100.00
68889;BME280;55930;47.412;8.790;2023-07-31T06:23:47;94706.31;;;15.96;100.00
68889;BME280;55930;47.412;8.790;2023-07-31T06:27:08;94715.75;;;15.97;100.00
68889;BME280;55930;47.412;8.790;2023-07-31T06:30:28;94696.31;;;15.96;100.00
68889;BME280;55930;47.412;8.790;2023-07-31T06:33:49;94698.94;;;16.19;100.00
68889;BME280;55930;47.412;8.790;2023-07-31T06:37:09;94695.94;;;16.39;100.00
68889;BME280;55930;47.412;8.790;2023-07-31T06:40:30;94699.03;;;16.60;100.00
68889;BME280;55930;47.412;8.790;2023-07-31T06:43:50;94696.19;;;16.41;100.00
68889;BME280;55930;47.412;8.790;2023-07-31T06:47:10;94698.31;;;16.54;100.00
68889;BME280;55930;47.412;8.790;2023-07-31T06:50:33;94709.03;;;16.54;100.00
68889;BME280;55930;47.412;8.790;2023-07-31T06:53:53;94712.00;;;16.44;100.00
68889;BME280;55930;47.412;8.790;2023-07-31T06:57:14;94714.75;;;16.91;100.00
68889;BME280;55930;47.412;8.790;2023-07-31T07:00:34;94720.97;;;17.10;100.00
68889;BME280;55930;47.412;8.790;2023-07-31T07:03:54;94710.19;;;17.51;100.00
68889;BME280;55930;47.412;8.790;2023-07-31T07:07:15;94692.31;;;17.89;100.00
68889;BME280;55930;47.412;8.790;2023-07-31T07:10:35;94684.84;;;18.07;100.00
68889;BME280;55930;47.412;8.790;2023-07-31T07:13:55;94668.66;;;18.55;100.00
68889;BME280;55930;47.412;8.790;2023-07-31T07:17:15;94670.47;;;18.47;100.00
68889;BME280;55930;47.412;8.790;2023-07-31T07:20:36;94671.03;;;18.40;100.00
68889;BME280;55930;47.412;8.790;2023-07-31T07:23:56;94673.09;;;18.10;100.00
68889;BME280;55930;47.412;8.790;2023-07-31T07:27:16;94677.66;;;18.15;100.00
68889;BME280;55930;47.412;8.790;2023-07-31T07:30:36;94659.66;;;18.53;100.00
68889;BME280;55930;47.412;8.790;2023-07-31T07:33:57;94659.63;;;19.60;100.00
68889;BME280;55930;47.412;8.790;2023-07-31T07:37:17;94658.28;;;19.02;100.00
68889;BME280;55930;47.412;8.790;2023-07-31T07:40:41;94663.44;;;19.00;100.00
68889;BME280;55930;47.412;8.790;2023-07-31T07:44:01;94662.53;;;19.30;100.00
68889;BME280;55930;47.412;8.790;2023-07-31T07:47:21;94665.66;;;20.45;95.53
68889;BME280;55930;47.412;8.790;2023-07-31T07:50:42;94665.16;;;20.46;97.84
68889;BME280;55930;47.412;8.790;2023-07-31T07:54:02;94679.94;;;19.74;97.92
68889;BME280;55930;47.412;8.790;2023-07-31T07:57:22;94679.28;;;19.04;100.00
68889;BME280;55930;47.412;8.790;2023-07-31T08:00:48;94686.31;;;20.42;92.84
68889;BME280;55930;47.412;8.790;2023-07-31T08:04:08;94687.41;;;20.60;97.62
68889;BME280;55930;47.412;8.790;2023-07-31T08:07:28;94688.66;;;21.61;90.61
68889;BME280;55930;47.412;8.790;2023-07-31T08:10:49;94691.50;;;20.40;93.77
68889;BME280;55930;47.412;8.790;2023-07-31T08:14:09;94688.38;;;20.36;93.03
68889;BME280;55930;47.412;8.790;2023-07-31T08:17:29;94693.13;;;20.43;92.28
68889;BME280;55930;47.412;8.790;2023-07-31T08:20:49;94674.44;;;20.72;92.29
68889;BME280;55930;47.412;8.790;2023-07-31T08:24:10;94674.78;;;22.34;73.36
68889;BME280;55930;47.412;8.790;2023-07-31T08:27:30;94674.25;;;22.43;71.57
68889;BME280;55930;47.412;8.790;2023-07-31T08:30:50;94660.22;;;20.71;76.23
68889;BME280;55930;47.412;8.790;2023-07-31T08:34:11;94664.84;;;20.50;76.73
68889;BME280;55930;47.412;8.790;2023-07-31T08:37:31;94655.19;;;20.28;75.13
68889;BME280;55930;47.412;8.790;2023-07-31T08:40:51;94641.13;;;20.09;75.21
68889;BME280;55930;47.412;8.790;2023-07-31T08:44:12;94652.81;;;20.85;74.96
68889;BME280;55930;47.412;8.790;2023-07-31T08:47:34;94651.56;;;20.25;74.59
68889;BME280;55930;47.412;8.790;2023-07-31T08:50:57;94653.25;;;21.10;75.67
68889;BME280;55930;47.412;8.790;2023-07-31T08:54:17;94649.25;;;21.03;74.04
68889;BME280;55930;47.412;8.790;2023-07-31T08:57:38;94641.91;;;21.45;71.67
68889;BME280;55930;47.412;8.790;2023-07-31T09:01:01;94635.28;;;21.46;70.00
68889;BME280;55930;47.412;8.790;2023-07-31T09:04:23;94632.88;;;22.20;69.52
68889;BME280;55930;47.412;8.790;2023-07-31T09:07:45;94631.22;;;21.89;66.97
68889;BME280;55930;47.412;8.790;2023-07-31T09:11:08;94632.19;;;22.71;65.97
68889;BME280;55930;47.412;8.790;2023-07-31T09:14:29;94628.00;;;25.00;55.39
68889;BME280;55930;47.412;8.790;2023-07-31T09:17:50;94627.47;;;25.26;52.61
68889;BME280;55930;47.412;8.790;2023-07-31T09:21:18;94635.34;;;25.39;50.53
68889;BME280;55930;47.412;8.790;2023-07-31T09:24:41;94639.00;;;25.34;48.31
68889;BME280;55930;47.412;8.790;2023-07-31T09:28:05;94620.16;;;25.36;47.81
68889;BME280;55930;47.412;8.790;2023-07-31T09:31:41;94632.59;;;25.22;48.15
68889;BME280;55930;47.412;8.790;2023-07-31T09:35:06;94627.75;;;27.00;45.14
68889;BME280;55930;47.412;8.790;2023-07-31T09:38:32;94632.25;;;26.10;47.43
68889;BME280;55930;47.412;8.790;2023-07-31T09:41:53;94613.53;;;27.65;43.07
68889;BME280;55930;47.412;8.790;2023-07-31T09:45:14;94620.41;;;26.49;45.23
68889;BME280;55930;47.412;8.790;2023-07-31T09:48:38;94615.53;;;30.02;40.77
68889;BME280;55930;47.412;8.790;2023-07-31T09:51:58;94607.88;;;28.29;42.49
68889;BME280;55930;47.412;8.790;2023-07-31T09:55:19;94601.38;;;27.39;44.12
68889;BME280;55930;47.412;8.790;2023-07-31T09:58:39;94601.91;;;27.65;44.37
68889;BME280;55930;47.412;8.790;2023-07-31T10:01:59;94593.63;;;29.28;41.38
68889;BME280;55930;47.412;8.790;2023-07-31T10:05:20;94597.28;;;29.74;42.00
68889;BME280;55930;47.412;8.790;2023-07-31T10:08:41;94604.59;;;29.50;40.50
68889;BME280;55930;47.412;8.790;2023-07-31T10:12:02;94591.22;;;28.44;42.94
68889;BME280;55930;47.412;8.790;2023-07-31T10:15:29;94599.25;;;30.04;41.88
68889;BME280;55930;47.412;8.790;2023-07-31T10:18:50;94578.31;;;29.66;38.76
68889;BME280;55930;47.412;8.790;2023-07-31T10:22:13;94572.66;;;29.52;39.31
68889;BME280;55930;47.412;8.790;2023-07-31T10:25:34;94565.56;;;31.12;37.38
68889;BME280;55930;47.412;8.790;2023-07-31T10:28:55;94574.53;;;26.46;43.87
68889;BME280;55930;47.412;8.790;2023-07-31T10:32:15;94560.03;;;27.60;46.68
68889;BME280;55930;47.412;8.790;2023-07-31T10:35:37;94552.00;;;28.30;44.88
68889;BME280;55930;47.412;8.790;2023-07-31T10:38:57;94556.69;;;24.67;48.16
68889;BME280;55930;47.412;8.790;2023-07-31T10:42:17;94537.53;;;27.33;45.22
68889;BME280;55930;47.412;8.790;2023-07-31T10:45:39;94538.28;;;26.43;46.57
68889;BME280;55930;47.412;8.790;2023-07-31T10:49:02;94535.91;;;27.57;45.27
68889;BME280;55930;47.412;8.790;2023-07-31T10:52:23;94524.00;;;28.29;44.47
68889;BME280;55930;47.412;8.790;2023-07-31T10:55:43;94519.97;;;28.49;43.04
68889;BME280;55930;47.412;8.790;2023-07-31T10:59:03;94512.41;;;30.49;40.39
68889;BME280;55930;47.412;8.790;2023-07-31T11:02:25;94506.06;;;30.35;39.10
68889;BME280;55930;47.412;8.790;2023-07-31T11:05:59;94505.13;;;30.42;37.93
68889;BME280;55930;47.412;8.790;2023-07-31T11:09:20;94495.53;;;28.92;40.18
68889;BME280;55930;47.412;8.790;2023-07-31T11:12:41;94490.34;;;31.27;37.38
68889;BME280;55930;47.412;8.790;2023-07-31T11:16:01;94494.59;;;29.40;39.72
68889;BME280;55930;47.412;8.790;2023-07-31T11:19:24;94487.72;;;28.58;41.56
68889;BME280;55930;47.412;8.790;2023-07-31T11:22:45;94480.66;;;28.24;40.43
68889;BME280;55930;47.412;8.790;2023-07-31T11:26:06;94470.97;;;31.48;36.18
68889;BME280;55930;47.412;8.790;2023-07-31T11:29:27;94468.28;;;30.90;36.42
68889;BME280;55930;47.412;8.790;2023-07-31T11:32:48;94467.41;;;31.45;35.47
68889;BME280;55930;47.412;8.790;2023-07-31T11:36:15;94462.69;;;31.71;34.50
68889;BME280;55930;47.412;8.790;2023-07-31T11:39:36;94467.03;;;31.63;35.00
68889;BME280;55930;47.412;8.790;2023-07-31T11:43:02;94459.34;;;31.01;34.36
68889;BME280;55930;47.412;8.790;2023-07-31T11:46:23;94482.22;;;30.59;37.43
68889;BME280;55930;47.412;8.790;2023-07-31T11:49:44;94482.34;;;33.35;33.34
68889;BME280;55930;47.412;8.790;2023-07-31T11:53:07;94468.63;;;32.55;33.91
68889;BME280;55930;47.412;8.790;2023-07-31T11:56:28;94462.59;;;31.94;34.91
68889;BME280;55930;47.412;8.790;2023-07-31T11:59:49;94456.75;;;30.79;34.76
68889;BME280;55930;47.412;8.790;2023-07-31T12:03:10;94453.38;;;30.81;38.80
68889;BME280;55930;47.412;8.790;2023-07-31T12:06:34;94447.66;;;32.62;33.17
68889;BME280;55930;47.412;8.790;2023-07-31T12:09:54;94444.72;;;30.96;35.09
68889;BME280;55930;47.412;8.790;2023-07-31T12:13:22;94443.16;;;31.05;34.18
68889;BME280;55930;47.412;8.790;2023-07-31T12:16:42;94437.44;;;29.44;37.37
68889;BME280;55930;47.412;8.790;2023-07-31T12:20:04;94435.63;;;29.91;36.97
68889;BME280;55930;47.412;8.790;2023-07-31T12:23:25;94437.41;;;30.31;37.79
68889;BME280;55930;47.412;8.790;2023-07-31T12:26:48;94433.41;;;29.45;38.97
68889;BME280;55930;47.412;8.790;2023-07-31T12:30:25;94432.59;;;29.33;39.64
68889;BME280;55930;47.412;8.790;2023-07-31T12:33:46;94423.38;;;29.38;39.99
68889;BME280;55930;47.412;8.790;2023-07-31T12:37:09;94429.00;;;30.05;36.03
68889;BME280;55930;47.412;8.790;2023-07-31T12:40:29;94422.91;;;30.87;33.91
68889;BME280;55930;47.412;8.790;2023-07-31T12:43:50;94414.06;;;30.41;33.76
68889;BME280;55930;47.412;8.790;2023-07-31T12:47:10;94413.50;;;31.50;32.87
68889;BME280;55930;47.412;8.790;2023-07-31T12:50:30;94410.53;;;30.62;34.44
68889;BME280;55930;47.412;8.790;2023-07-31T12:53:50;94411.25;;;31.83;32.20
68889;BME280;55930;47.412;8.790;2023-07-31T12:57:11;94399.75;;;30.08;34.73
68889;BME280;55930;47.412;8.790;2023-07-31T13:00:31;94398.31;;;28.37;37.04
68889;BME280;55930;47.412;8.790;2023-07-31T13:03:51;94385.25;;;28.35;38.97
68889;BME280;55930;47.412;8.790;2023-07-31T13:07:12;94377.50;;;28.32;39.42
68889;BME280;55930;47.412;8.790;2023-07-31T13:10:32;94371.38;;;32.88;34.75
68889;BME280;55930;47.412;8.790;2023-07-31T13:13:55;94369.59;;;32.26;32.27
68889;BME280;55930;47.412;8.790;2023-07-31T13:17:17;94359.91;;;31.61;32.84
68889;BME280;55930;47.412;8.790;2023-07-31T13:20:38;94347.72;;;31.38;34.89
68889;BME280;55930;47.412;8.790;2023-07-31T13:23:58;94341.19;;;31.32;32.13
68889;BME280;55930;47.412;8.790;2023-07-31T13:27:20;94345.63;;;32.40;31.32
68889;BME280;55930;47.412;8.790;2023-07-31T13:30:41;94342.25;;;31.64;33.44
68889;BME280;55930;47.412;8.790;2023-07-31T13:34:02;94353.44;;;29.56;35.72
68889;BME280;55930;47.412;8.790;2023-07-31T13:37:22;94345.84;;;31.29;32.66
68889;BME280;55930;47.412;8.790;2023-07-31T13:40:43;94346.06;;;33.19;31.19
68889;BME280;55930;47.412;8.790;2023-07-31T13:44:05;94342.06;;;27.53;37.88
68889;BME280;55930;47.412;8.790;2023-07-31T13:47:28;94340.22;;;30.90;35.64
68889;BME280;55930;47.412;8.790;2023-07-31T13:50:48;94340.38;;;28.79;36.25
68889;BME280;55930;47.412;8.790;2023-07-31T13:54:09;94339.66;;;30.33;34.53
68889;BME280;55930;47.412;8.790;2023-07-31T13:57:31;94332.00;;;33.13;32.93
68889;BME280;55930;47.412;8.790;2023-07-31T14:00:51;94324.31;;;30.52;33.09
68889;BME280;55930;47.412;8.790;2023-07-31T14:04:12;94327.50;;;29.45;36.84
68889;BME280;55930;47.412;8.790;2023-07-31T14:07:32;94314.69;;;31.11;32.86
68889;BME280;55930;47.412;8.790;2023-07-31T14:10:52;94317.03;;;31.28;34.60
68889;BME280;55930;47.412;8.790;2023-07-31T14:14:13;94319.91;;;31.69;33.80
68889;BME280;55930;47.412;8.790;2023-07-31T14:17:33;94313.97;;;30.99;34.02
68889;BME280;55930;47.412;8.790;2023-07-31T14:20:54;94321.19;;;29.21;36.64
68889;BME280;55930;47.412;8.790;2023-07-31T14:24:14;94312.59;;;28.30;39.20
68889;BME280;55930;47.412;8.790;2023-07-31T14:27:34;94318.81;;;29.37;36.30
68889;BME280;55930;47.412;8.790;2023-07-31T14:30:57;94312.41;;;28.38;37.39
68889;BME280;55930;47.412;8.790;2023-07-31T14:34:20;94296.59;;;27.65;38.40
68889;BME280;55930;47.412;8.790;2023-07-31T14:37:41;94295.66;;;28.53;39.30
68889;BME280;55930;47.412;8.790;2023-07-31T14:41:01;94296.75;;;27.57;39.97
68889;BME280;55930;47.412;8.790;2023-07-31T14:44:21;94295.28;;;28.16;39.65
68889;BME280;55930;47.412;8.790;2023-07-31T14:47:42;94287.56;;;27.62;39.77
68889;BME280;55930;47.412;8.790;2023-07-31T14:51:02;94296.94;;;27.21;43.30
68889;BME280;55930;47.412;8.790;2023-07-31T14:54:22;94284.88;;;27.43;40.38
68889;BME280;55930;47.412;8.790;2023-07-31T14:57:43;94290.06;;;27.20;39.96
68889;BME280;55930;47.412;8.790;2023-07-31T15:01:05;94282.59;;;27.90;40.69
68889;BME280;55930;47.412;8.790;2023-07-31T15:04:25;94283.81;;;28.60;39.89
68889;BME280;55930;47.412;8.790;2023-07-31T15:07:45;94293.06;;;27.93;40.34
68889;BME280;55930;47.412;8.790;2023-07-31T15:11:06;94284.66;;;28.10;41.28
68889;BME280;55930;47.412;8.790;2023-07-31T15:14:29;94276.41;;;26.52;42.87
68889;BME280;55930;47.412;8.790;2023-07-31T15:17:51;94275.84;;;26.83;44.76
68889;BME280;55930;47.412;8.790;2023-07-31T15:21:11;94273.56;;;26.98;47.48
68889;BME280;55930;47.412;8.790;2023-07-31T15:24:31;94265.81;;;26.66;44.68
68889;BME280;55930;47.412;8.790;2023-07-31T15:27:51;94262.09;;;26.71;45.16
68889;BME280;55930;47.412;8.790;2023-07-31T15:31:14;94263.66;;;27.32;45.04
68889;BME280;55930;47.412;8.790;2023-07-31T15:34:37;94243.97;;;27.53;46.08
68889;BME280;55930;47.412;8.790;2023-07-31T15:37:57;94239.31;;;26.76;45.90
68889;BME280;55930;47.412;8.790;2023-07-31T15:41:17;94240.81;;;26.21;45.46
68889;BME280;55930;47.412;8.790;2023-07-31T15:44:38;94231.34;;;26.13;44.81
68889;BME280;55930;47.412;8.790;2023-07-31T15:47:59;94231.59;;;26.63;45.70
68889;BME280;55930;47.412;8.790;2023-07-31T15:51:19;94226.28;;;26.84;44.70
68889;BME280;55930;47.412;8.790;2023-07-31T15:54:42;94222.72;;;25.97;44.98
68889;BME280;55930;47.412;8.790;2023-07-31T15:58:02;94228.88;;;25.98;48.18
68889;BME280;55930;47.412;8.790;2023-07-31T16:01:23;94228.56;;;26.49;48.74
68889;BME280;55930;47.412;8.790;2023-07-31T16:04:43;94230.34;;;26.08;48.01
68889;BME280;55930;47.412;8.790;2023-07-31T16:08:03;94225.47;;;25.61;49.33
68889;BME280;55930;47.412;8.790;2023-07-31T16:11:24;94220.84;;;25.53;49.45
68889;BME280;55930;47.412;8.790;2023-07-31T16:14:44;94214.47;;;25.14;50.21
68889;BME280;55930;47.412;8.790;2023-07-31T16:18:04;94209.25;;;25.26;49.97
68889;BME280;55930;47.412;8.790;2023-07-31T16:21:25;94201.72;;;25.07;52.34
68889;BME280;55930;47.412;8.790;2023-07-31T16:24:45;94205.78;;;25.43;50.75
68889;BME280;55930;47.412;8.790;2023-07-31T16:28:08;94197.03;;;24.91;60.08
68889;BME280;55930;47.412;8.790;2023-07-31T16:31:28;94195.81;;;25.01;59.71
68889;BME280;55930;47.412;8.790;2023-07-31T16:34:51;94196.19;;;24.54;61.57
68889;BME280;55930;47.412;8.790;2023-07-31T16:38:12;94195.94;;;24.94;53.29
68889;BME280;55930;47.412;8.790;2023-07-31T16:41:34;94195.16;;;24.49;64.82
68889;BME280;55930;47.412;8.790;2023-07-31T16:44:55;94193.66;;;24.56;57.71
68889;BME280;55930;47.412;8.790;2023-07-31T16:48:15;94184.94;;;24.40;63.11
68889;BME280;55930;47.412;8.790;2023-07-31T16:51:35;94192.03;;;24.35;62.03
68889;BME280;55930;47.412;8.790;2023-07-31T16:54:55;94186.31;;;24.49;62.82
68889;BME280;55930;47.412;8.790;2023-07-31T16:58:16;94195.06;;;24.22;69.34
68889;BME280;55930;47.412;8.790;2023-07-31T17:01:36;94200.03;;;23.91;69.47
68889;BME280;55930;47.412;8.790;2023-07-31T17:04:56;94188.31;;;24.31;63.69
68889;BME280;55930;47.412;8.790;2023-07-31T17:08:17;94187.91;;;23.92;68.87
68889;BME280;55930;47.412;8.790;2023-07-31T17:11:37;94190.78;;;23.94;70.14
68889;BME280;55930;47.412;8.790;2023-07-31T17:14:57;94178.75;;;23.63;77.16
68889;BME280;55930;47.412;8.790;2023-07-31T17:18:18;94173.34;;;23.63;75.62
68889;BME280;55930;47.412;8.790;2023-07-31T17:21:39;94177.41;;;23.47;79.13
68889;BME280;55930;47.412;8.790;2023-07-31T17:24:59;94172.75;;;23.40;78.10
68889;BME280;55930;47.412;8.790;2023-07-31T17:28:22;94162.91;;;23.59;80.17
68889;BME280;55930;47.412;8.790;2023-07-31T17:31:42;94162.19;;;23.02;82.04
68889;BME280;55930;47.412;8.790;2023-07-31T17:35:02;94155.44;;;22.70;83.65
68889;BME280;55930;47.412;8.790;2023-07-31T17:38:23;94169.47;;;22.84;85.17
68889;BME280;55930;47.412;8.790;2023-07-31T17:41:43;94174.84;;;22.44;85.38